createdAt,value
2023-02-27T00:02:17.036Z,60.73
2023-02-27T00:05:22.456Z,60.31
2023-02-27T00:08:25.312Z,60.68
2023-02-27T00:11:28.527Z,61.44
2023-02-27T00:14:31.155Z,61.14
2023-02-27T00:17:33.701Z,61.07
2023-02-27T00:20:38.279Z,60.75
2023-02-27T00:23:40.714Z,61.13
2023-02-27T00:26:43.281Z,60.38
2023-02-27T00:29:47.517Z,61.30
2023-02-27T00:32:50.126Z,61.83
2023-02-27T00:35:58.452Z,61.70
2023-02-27T00:39:01.006Z,61.45
2023-02-27T00:42:03.597Z,62.13
2023-02-27T00:45:07.100Z,62.11
2023-02-27T00:48:09.707Z,62.65
2023-02-27T00:51:12.868Z,62.66
2023-02-27T00:54:15.226Z,62.67
2023-02-27T00:57:18.075Z,63.03
2023-02-27T01:00:20.743Z,62.35
2023-02-27T01:03:23.265Z,62.13
2023-02-27T01:06:25.850Z,62.51
2023-02-27T01:09:30.409Z,62.03
2023-02-27T01:12:32.995Z,61.78
2023-02-27T01:15:35.514Z,61.94
2023-02-27T01:18:38.547Z,61.93
2023-02-27T01:21:42.151Z,61.55
2023-02-27T01:24:44.663Z,62.14
2023-02-27T01:27:48.918Z,61.76
2023-02-27T01:30:52.189Z,61.18
2023-02-27T01:33:54.658Z,61.66
2023-02-27T01:36:56.974Z,61.05
2023-02-27T01:39:59.382Z,60.64
2023-02-27T01:43:01.781Z,60.86
2023-02-27T01:46:04.326Z,60.42
2023-02-27T01:49:34.694Z,60.29
2023-02-27T01:52:40.602Z,59.12
2023-02-27T01:55:43.477Z,58.50
2023-02-27T01:58:49.495Z,59.10
2023-02-27T02:01:52.799Z,59.36
2023-02-27T02:04:56.377Z,59.19
2023-02-27T02:07:59.025Z,58.46
2023-02-27T02:11:03.646Z,59.27
2023-02-27T02:14:10.826Z,58.63
2023-02-27T02:17:23.181Z,58.74
2023-02-27T02:20:45.874Z,58.55
2023-02-27T02:24:03.238Z,58.73
2023-02-27T02:27:32.019Z,59.04
2023-02-27T02:30:53.470Z,59.85
2023-02-27T02:34:23.398Z,59.19
2023-02-27T02:37:40.174Z,58.67
2023-02-27T02:41:11.749Z,59.68
2023-02-27T02:44:36.819Z,59.47
2023-02-27T02:48:00.417Z,59.25
2023-02-27T02:51:20.258Z,58.76
2023-02-27T02:54:31.705Z,58.59
2023-02-27T02:57:40.969Z,57.76
2023-02-27T03:00:51.047Z,57.47
2023-02-27T03:03:59.113Z,57.14
2023-02-27T03:07:16.891Z,55.91
2023-02-27T03:10:30.467Z,57.03
2023-02-27T03:13:46.702Z,56.99
2023-02-27T03:16:53.395Z,57.00
2023-02-27T03:20:00.887Z,56.18
2023-02-27T03:23:10.745Z,55.68
2023-02-27T03:26:19.512Z,55.97
2023-02-27T03:29:30.210Z,55.81
2023-02-27T03:32:42.644Z,55.82
2023-02-27T03:35:49.606Z,55.01
2023-02-27T03:39:05.648Z,55.61
2023-02-27T03:42:19.267Z,55.48
2023-02-27T03:45:59.329Z,55.02
2023-02-27T03:49:02.082Z,56.06
2023-02-27T03:52:04.699Z,55.34
2023-02-27T03:55:19.713Z,55.47
2023-02-27T03:58:22.239Z,54.71
2023-02-27T04:01:25.158Z,55.65
2023-02-27T04:04:32.001Z,55.76
2023-02-27T04:08:09.794Z,55.45
2023-02-27T04:11:35.865Z,56.16
2023-02-27T04:14:54.310Z,56.74
2023-02-27T04:18:23.704Z,55.92
2023-02-27T04:21:55.062Z,56.44
2023-02-27T04:25:03.578Z,57.24
2023-02-27T04:28:29.229Z,57.94
2023-02-27T04:31:40.561Z,56.97
2023-02-27T04:34:48.934Z,56.62
2023-02-27T04:38:10.867Z,57.09
2023-02-27T04:41:19.288Z,57.46
2023-02-27T04:44:24.167Z,57.02
2023-02-27T04:47:31.359Z,56.73
2023-02-27T04:50:41.969Z,57.46
2023-02-27T04:54:12.612Z,56.99
2023-02-27T04:57:24.186Z,56.96
2023-02-27T05:00:28.721Z,57.05
2023-02-27T05:03:35.079Z,57.83
2023-02-27T05:06:41.385Z,57.68
2023-02-27T05:09:55.342Z,57.77
2023-02-27T05:13:03.525Z,57.31
2023-02-27T05:16:27.162Z,57.23
2023-02-27T05:19:32.646Z,56.74
2023-02-27T05:22:41.073Z,56.34
2023-02-27T05:26:37.029Z,56.25
2023-02-27T05:29:48.834Z,55.53
2023-02-27T05:33:13.058Z,55.61
2023-02-27T05:36:24.867Z,55.85
2023-02-27T05:39:30.494Z,55.50
2023-02-27T05:42:38.434Z,54.98
2023-02-27T05:45:44.815Z,54.15
2023-02-27T05:49:01.858Z,55.77
2023-02-27T05:52:09.669Z,54.62
2023-02-27T05:55:33.883Z,54.08
2023-02-27T05:58:43.772Z,55.53
2023-02-27T06:01:46.586Z,54.67
2023-02-27T06:04:49.142Z,55.42
2023-02-27T06:07:51.896Z,55.32
2023-02-27T06:10:55.348Z,55.26
2023-02-27T06:13:57.910Z,54.90
2023-02-27T06:17:00.360Z,54.25
2023-02-27T06:20:03.408Z,54.69
2023-02-27T06:23:06.763Z,54.15
2023-02-27T06:26:13.652Z,53.90
2023-02-27T06:29:16.090Z,54.39
2023-02-27T06:32:18.563Z,53.55
2023-02-27T06:35:21.862Z,52.58
2023-02-27T06:38:24.261Z,53.56
2023-02-27T06:41:26.621Z,53.05
2023-02-27T06:44:29.502Z,52.52
2023-02-27T06:47:32.520Z,52.49
2023-02-27T06:50:35.998Z,51.59
2023-02-27T06:53:38.494Z,50.94
2023-02-27T06:56:40.911Z,50.50
2023-02-27T06:59:45.155Z,48.47
2023-02-27T07:02:47.637Z,48.07
2023-02-27T07:05:50.418Z,48.34
2023-02-27T07:08:54.443Z,47.30
2023-02-27T07:12:05.662Z,46.85
2023-02-27T07:15:09.162Z,46.34
2023-02-27T07:18:11.604Z,45.62
2023-02-27T07:21:15.587Z,45.03
2023-02-27T07:24:18.105Z,42.49
2023-02-27T07:27:20.486Z,42.16
2023-02-27T07:30:22.947Z,42.39
2023-02-27T07:33:25.719Z,43.39
2023-02-27T07:36:28.447Z,44.50
2023-02-27T07:39:32.419Z,44.73
2023-02-27T07:42:35.460Z,44.94
2023-02-27T07:45:37.868Z,46.11
2023-02-27T07:48:40.537Z,47.58
2023-02-27T07:51:42.963Z,48.53
2023-02-27T07:54:45.404Z,48.35
2023-02-27T07:57:47.875Z,47.56
2023-02-27T08:00:50.375Z,48.21
2023-02-27T08:03:52.823Z,48.96
2023-02-27T08:06:55.234Z,48.19
2023-02-27T08:09:57.644Z,47.75
2023-02-27T08:13:00.164Z,46.89
2023-02-27T08:16:02.609Z,46.05
2023-02-27T08:19:05.089Z,47.39
2023-02-27T08:22:07.728Z,45.53
2023-02-27T08:25:11.320Z,45.50
2023-02-27T08:28:13.756Z,46.95
2023-02-27T08:31:16.226Z,46.48
2023-02-27T08:34:18.714Z,46.55
2023-02-27T08:37:21.127Z,45.66
2023-02-27T08:40:23.795Z,46.17
2023-02-27T08:43:26.282Z,48.13
2023-02-27T08:46:29.082Z,45.92
2023-02-27T08:49:32.070Z,44.77
2023-02-27T08:52:34.411Z,45.81
2023-02-27T08:55:36.825Z,46.02
2023-02-27T08:58:39.540Z,45.01
2023-02-27T09:01:42.564Z,45.58
2023-02-27T09:04:45.060Z,44.71
2023-02-27T09:07:47.508Z,44.07
2023-02-27T09:10:51.014Z,42.66
2023-02-27T09:13:53.762Z,42.91
2023-02-27T09:16:56.560Z,42.22
2023-02-27T09:19:59.169Z,41.82
2023-02-27T09:23:02.531Z,40.03
2023-02-27T09:26:05.666Z,39.54
2023-02-27T09:29:08.033Z,41.59
2023-02-27T09:32:10.564Z,40.14
2023-02-27T09:35:15.898Z,38.93
2023-02-27T09:38:18.321Z,37.85
2023-02-27T09:41:30.253Z,36.68
2023-02-27T09:44:46.234Z,37.11
2023-02-27T09:47:53.813Z,37.55
2023-02-27T09:50:58.119Z,37.18
2023-02-27T09:54:01.808Z,39.84
2023-02-27T09:57:08.941Z,39.30
2023-02-27T10:00:49.576Z,39.23
2023-02-27T10:04:14.966Z,40.91
2023-02-27T10:07:45.211Z,41.78
2023-02-27T10:11:01.014Z,43.10
2023-02-27T10:14:30.757Z,40.91
2023-02-27T10:17:41.559Z,40.98
2023-02-27T10:21:00.489Z,40.25
2023-02-27T10:24:11.337Z,39.46
2023-02-27T10:27:17.723Z,38.12
2023-02-27T10:30:29.294Z,38.25
2023-02-27T10:33:37.324Z,37.51
2023-02-27T10:36:41.161Z,36.40
2023-02-27T10:39:54.533Z,37.11
2023-02-27T10:43:01.533Z,37.04
2023-02-27T10:46:12.214Z,36.81
2023-02-27T10:49:19.349Z,37.04
2023-02-27T10:52:22.294Z,38.24
2023-02-27T10:55:30.949Z,37.78
2023-02-27T10:58:37.356Z,38.03
2023-02-27T11:02:17.781Z,37.59
2023-02-27T11:05:27.654Z,38.76
2023-02-27T11:08:32.255Z,39.72
2023-02-27T11:11:35.043Z,38.31
2023-02-27T11:14:49.335Z,39.90
2023-02-27T11:17:51.767Z,38.89
2023-02-27T11:21:09.333Z,40.28
2023-02-27T11:24:20.748Z,40.45
2023-02-27T11:27:29.712Z,41.06
2023-02-27T11:30:32.433Z,40.47
2023-02-27T11:33:39.495Z,41.78
2023-02-27T11:36:47.305Z,40.42
2023-02-27T11:39:53.078Z,40.36
2023-02-27T11:43:01.953Z,40.25
2023-02-27T11:46:26.035Z,41.62
2023-02-27T11:49:36.620Z,41.80
2023-02-27T11:52:53.047Z,42.09
2023-02-27T11:55:59.523Z,42.89
2023-02-27T11:59:04.673Z,43.36
2023-02-27T12:02:18.016Z,43.81
2023-02-27T12:05:26.420Z,43.44
2023-02-27T12:08:34.675Z,44.15
2023-02-27T12:11:44.139Z,44.53
2023-02-27T12:15:00.966Z,44.73
2023-02-27T12:18:24.694Z,44.80
2023-02-27T12:21:48.394Z,44.76
2023-02-27T12:24:57.528Z,44.96
2023-02-27T12:28:06.558Z,44.79
2023-02-27T12:31:23.818Z,45.78
2023-02-27T12:34:29.529Z,45.32
2023-02-27T12:37:35.035Z,44.34
2023-02-27T12:40:43.860Z,45.52
2023-02-27T12:44:14.471Z,44.87
2023-02-27T12:47:50.843Z,45.83
2023-02-27T12:51:02.720Z,45.03
2023-02-27T12:54:12.223Z,44.82
2023-02-27T12:57:31.805Z,45.01
2023-02-27T13:00:46.521Z,45.27
2023-02-27T13:03:59.502Z,44.79
2023-02-27T13:07:09.459Z,44.63
2023-02-27T13:10:26.865Z,45.90
2023-02-27T13:13:40.638Z,45.73
2023-02-27T13:16:46.552Z,45.61
2023-02-27T13:20:30.137Z,45.30
2023-02-27T13:23:54.163Z,45.76
2023-02-27T13:26:56.645Z,45.25
2023-02-27T13:30:08.683Z,45.67
2023-02-27T13:33:35.533Z,46.96
2023-02-27T13:36:46.267Z,46.59
2023-02-27T13:39:52.725Z,46.17
2023-02-27T13:43:21.300Z,45.92
2023-02-27T13:46:29.386Z,45.70
2023-02-27T13:49:42.962Z,46.48
2023-02-27T13:52:46.926Z,46.28
2023-02-27T13:56:11.144Z,45.97
2023-02-27T13:59:21.014Z,45.77
2023-02-27T14:02:57.914Z,45.68
2023-02-27T14:06:03.890Z,46.17
2023-02-27T14:09:15.111Z,46.07
2023-02-27T14:12:45.539Z,46.41
2023-02-27T14:15:53.068Z,46.73
2023-02-27T14:18:58.899Z,45.48
2023-02-27T14:22:16.431Z,46.85
2023-02-27T14:25:52.169Z,46.24
2023-02-27T14:28:56.520Z,46.16
2023-02-27T14:32:04.619Z,45.82
2023-02-27T14:35:08.795Z,46.74
2023-02-27T14:38:15.479Z,46.05
2023-02-27T14:41:27.314Z,46.11
2023-02-27T14:44:43.659Z,45.41
2023-02-27T14:47:46.643Z,45.34
2023-02-27T14:50:53.767Z,45.81
2023-02-27T14:54:12.979Z,45.59
2023-02-27T14:57:19.458Z,46.31
2023-02-27T15:00:37.833Z,45.59
2023-02-27T15:03:49.982Z,46.19
2023-02-27T15:06:55.037Z,45.17
2023-02-27T15:10:02.597Z,44.40
2023-02-27T15:13:06.655Z,44.67
2023-02-27T15:16:31.254Z,45.51
2023-02-27T15:19:34.183Z,45.87
2023-02-27T15:22:39.678Z,46.78
2023-02-27T15:25:42.562Z,48.54
2023-02-27T15:28:45.058Z,47.07
2023-02-27T15:31:47.751Z,48.49
2023-02-27T15:34:50.277Z,47.65
2023-02-27T15:37:58.473Z,47.54
2023-02-27T15:41:02.803Z,48.47
2023-02-27T15:44:05.694Z,49.28
2023-02-27T15:47:12.979Z,48.19
2023-02-27T15:50:18.241Z,48.98
2023-02-27T15:53:23.740Z,49.17
2023-02-27T15:56:31.512Z,49.64
2023-02-27T15:59:39.834Z,49.78
2023-02-27T16:02:52.214Z,49.53
2023-02-27T16:05:54.868Z,49.62
2023-02-27T16:08:57.318Z,50.15
2023-02-27T16:12:33.258Z,50.54
2023-02-27T16:15:36.475Z,50.46
2023-02-27T16:18:47.242Z,50.88
2023-02-27T16:22:15.991Z,50.89
2023-02-27T16:25:19.301Z,51.00
2023-02-27T16:28:21.805Z,51.68
2023-02-27T16:31:28.089Z,51.32
2023-02-27T16:34:45.765Z,51.45
2023-02-27T16:37:50.507Z,52.00
2023-02-27T16:40:53.105Z,51.22
2023-02-27T16:43:56.360Z,51.88
2023-02-27T16:46:58.958Z,52.36
2023-02-27T16:50:01.478Z,52.36
2023-02-27T16:53:04.278Z,52.60
2023-02-27T16:56:13.362Z,53.62
2023-02-27T16:59:36.691Z,54.14
2023-02-27T17:02:39.165Z,53.81
2023-02-27T17:05:41.621Z,54.06
2023-02-27T17:08:44.821Z,54.69
2023-02-27T17:11:47.411Z,53.94
2023-02-27T17:14:49.938Z,54.14
2023-02-27T17:17:52.429Z,54.65
2023-02-27T17:20:57.263Z,55.51
2023-02-27T17:24:00.695Z,54.96
2023-02-27T17:27:03.462Z,55.70
2023-02-27T17:30:07.067Z,55.31
2023-02-27T17:33:10.750Z,55.84
2023-02-27T17:36:14.438Z,55.37
2023-02-27T17:39:17.500Z,55.67
2023-02-27T17:42:20.020Z,55.60
2023-02-27T17:45:24.558Z,55.79
2023-02-27T17:48:27.794Z,56.02
2023-02-27T17:51:31.268Z,55.82
2023-02-27T17:54:35.386Z,55.84
2023-02-27T17:57:39.533Z,55.59
2023-02-27T18:00:42.146Z,56.07
2023-02-27T18:03:44.848Z,55.90
2023-02-27T18:06:47.427Z,56.66
2023-02-27T18:09:49.938Z,56.74
2023-02-27T18:12:53.000Z,56.57
2023-02-27T18:15:56.660Z,56.63
2023-02-27T18:19:02.589Z,56.13
2023-02-27T18:22:05.187Z,57.14
2023-02-27T18:25:08.166Z,56.67
2023-02-27T18:28:11.050Z,56.80
2023-02-27T18:31:21.153Z,56.86
2023-02-27T18:34:25.166Z,57.37
2023-02-27T18:37:28.593Z,57.84
2023-02-27T18:40:31.334Z,57.88
2023-02-27T18:43:34.525Z,57.33
2023-02-27T18:46:38.388Z,57.86
2023-02-27T18:49:41.055Z,57.53
2023-02-27T18:52:44.185Z,57.94
2023-02-27T18:55:46.902Z,58.10
2023-02-27T18:58:50.874Z,58.12
2023-02-27T19:01:54.947Z,59.09
2023-02-27T19:04:57.926Z,58.38
2023-02-27T19:08:00.567Z,58.83
2023-02-27T19:11:03.776Z,58.82
2023-02-27T19:14:08.804Z,59.48
2023-02-27T19:17:11.558Z,59.76
2023-02-27T19:20:16.610Z,60.13
2023-02-27T19:23:19.584Z,59.90
2023-02-27T19:26:24.195Z,59.97
2023-02-27T19:29:26.882Z,59.80
2023-02-27T19:32:31.021Z,59.82
2023-02-27T19:35:33.921Z,59.70
2023-02-27T19:38:37.260Z,60.06
2023-02-27T19:41:40.006Z,60.50
2023-02-27T19:44:43.249Z,60.05
2023-02-27T19:47:46.725Z,60.12
2023-02-27T19:50:49.698Z,59.43
2023-02-27T19:53:53.753Z,60.11
2023-02-27T19:56:56.494Z,59.43
2023-02-27T19:59:59.912Z,59.02
2023-02-27T20:03:03.330Z,59.71
2023-02-27T20:06:14.328Z,59.63
2023-02-27T20:09:18.615Z,59.96
2023-02-27T20:12:21.692Z,60.03
2023-02-27T20:15:24.427Z,59.71
2023-02-27T20:18:29.521Z,59.91
2023-02-27T20:21:33.857Z,60.52
2023-02-27T20:24:36.331Z,59.22
2023-02-27T20:27:38.927Z,60.07
2023-02-27T20:30:41.555Z,59.95
2023-02-27T20:33:44.787Z,60.27
2023-02-27T20:36:48.660Z,60.06
2023-02-27T20:39:53.883Z,59.67
2023-02-27T20:42:58.210Z,60.05
2023-02-27T20:46:05.823Z,59.20
2023-02-27T20:49:10.296Z,60.05
2023-02-27T20:52:12.950Z,60.92
2023-02-27T20:55:15.714Z,60.19
2023-02-27T20:58:18.400Z,60.10
2023-02-27T21:01:21.476Z,59.65
2023-02-27T21:04:42.370Z,60.25
2023-02-27T21:07:46.693Z,60.20
2023-02-27T21:10:51.566Z,60.29
2023-02-27T21:13:55.641Z,60.22
2023-02-27T21:16:58.814Z,60.61
2023-02-27T21:20:06.632Z,60.47
2023-02-27T21:23:11.117Z,60.53
2023-02-27T21:26:20.246Z,60.31
2023-02-27T21:29:22.632Z,60.54
2023-02-27T21:32:25.037Z,60.13
2023-02-27T21:35:28.588Z,60.83
2023-02-27T21:38:31.431Z,60.61
2023-02-27T21:41:34.793Z,61.14
2023-02-27T21:44:37.158Z,60.88
2023-02-27T21:47:39.573Z,60.89
2023-02-27T21:50:41.926Z,60.63
2023-02-27T21:53:46.794Z,60.46
2023-02-27T21:56:49.699Z,61.18
2023-02-27T21:59:52.468Z,60.94
2023-02-27T22:02:55.356Z,60.88
2023-02-27T22:05:57.860Z,60.65
2023-02-27T22:09:02.623Z,61.30
2023-02-27T22:12:05.277Z,61.60
2023-02-27T22:15:08.352Z,60.43
2023-02-27T22:18:10.750Z,60.93
2023-02-27T22:21:17.206Z,60.93
2023-02-27T22:24:20.516Z,60.88
2023-02-27T22:27:22.956Z,61.39
2023-02-27T22:30:25.967Z,61.08
2023-02-27T22:33:28.422Z,61.69
2023-02-27T22:36:32.830Z,60.86
2023-02-27T22:39:35.278Z,61.18
2023-02-27T22:42:37.697Z,60.85
2023-02-27T22:45:46.250Z,60.75
2023-02-27T22:48:48.695Z,60.93
2023-02-27T22:51:52.345Z,60.35
2023-02-27T22:54:54.821Z,60.31
2023-02-27T22:57:58.227Z,60.25
2023-02-27T23:01:01.726Z,60.42
2023-02-27T23:04:07.776Z,60.35
2023-02-27T23:07:10.264Z,60.86
2023-02-27T23:10:12.753Z,60.72
2023-02-27T23:13:15.174Z,61.11
2023-02-27T23:16:17.680Z,61.53
2023-02-27T23:19:21.528Z,61.80
2023-02-27T23:22:23.904Z,62.16
2023-02-27T23:25:26.325Z,61.64
2023-02-27T23:28:29.945Z,62.40
2023-02-27T23:31:35.451Z,62.22
2023-02-27T23:34:49.006Z,62.34
2023-02-27T23:37:54.304Z,62.83
2023-02-27T23:40:57.146Z,62.54
2023-02-27T23:44:01.507Z,62.74
2023-02-27T23:47:03.972Z,62.93
2023-02-27T23:50:07.107Z,63.51
2023-02-27T23:53:10.421Z,63.04
2023-02-27T23:56:14.104Z,63.15
2023-02-27T23:59:16.484Z,63.27
